»·PEaware :: N1399 KSAN-KPOC

N1399 :: KSAN-KPOC

FLIGHT INFORMATION

Flight Status: Arrived
Operator: Privately registered:
United States
More flights under this callsign
Pilot: David C. (16084)
Aircraft: SOCATA TBM-900
(TBM9)
More flights by this aircraft type
Origin: KSAN San Diego Intl-Lindbergh
United States
Destination: KPOC Brackett
United States
More flights between these airports :: More routes between these airports
Route: +MZB293R POM164R POM
File this flight plan on PilotEdge
Remarks: SANP24
Altitude:
(Current/Filed)
8,000ft
Speed:
(Current/Filed)
263kts
Departed: 31-Dec-19 01:33 PM
Arrived: 31-Dec-19 02:01 PM
Distance/Time
Traveled:
87nm/0:28
Distance/Time
To Go:
Arrived

Flight Plot

Page will automatically refresh every two minutes.

Flight plan parsing failed; only flown route is shown


Map Options




Map Legend


Flown Route
Filed Route
Departure Airport
Arrival Airport
Navaid (VOR, NDB)
Fix

Horizontal Profiles

Position Reports

Time Latitude Longitude Heading Altitude Ground
Speed
31-Dec-19 13:08 32.732230 -117.177219 194 20ft 0kts
31-Dec-19 13:10 32.732230 -117.177219 194 20ft 0kts
31-Dec-19 13:11 32.732230 -117.177219 194 20ft 0kts
31-Dec-19 13:11 32.732230 -117.177219 194 20ft 0kts
31-Dec-19 13:12 32.732230 -117.177219 194 20ft 0kts
31-Dec-19 13:13 32.732230 -117.177219 194 20ft 0kts
31-Dec-19 13:14 32.732230 -117.177219 194 20ft 0kts
31-Dec-19 13:15 32.732230 -117.177219 194 20ft 0kts
31-Dec-19 13:16 32.732230 -117.177219 194 20ft 0kts
31-Dec-19 13:17 32.732230 -117.177219 194 20ft 0kts
31-Dec-19 13:18 32.732230 -117.177219 194 20ft 0kts
31-Dec-19 13:19 32.732230 -117.177219 194 20ft 0kts
31-Dec-19 13:20 32.732230 -117.177219 194 20ft 0kts
31-Dec-19 13:21 32.732230 -117.177219 194 20ft 0kts
31-Dec-19 13:22 32.732230 -117.177219 194 20ft 0kts
31-Dec-19 13:23 32.732230 -117.177219 194 20ft 0kts
31-Dec-19 13:24 32.732230 -117.177219 194 20ft 0kts
31-Dec-19 13:25 32.732230 -117.177219 194 20ft 0kts
31-Dec-19 13:26 32.732230 -117.177219 194 20ft 0kts
31-Dec-19 13:27 32.732230 -117.177219 194 20ft 0kts
31-Dec-19 13:28 32.732230 -117.177219 194 20ft 0kts
31-Dec-19 13:29 32.732182 -117.177233 193 20ft 1kts
31-Dec-19 13:30 32.730916 -117.175442 140 20ft 0kts
31-Dec-19 13:31 32.730386 -117.175159 192 20ft 12kts
31-Dec-19 13:32 32.738090 -117.202002 301 857ft 138kts
31-Dec-19 13:33 32.757083 -117.245234 301 2929ft 155kts
31-Dec-19 13:34 32.778753 -117.295042 301 4042ft 200kts
31-Dec-19 13:35 32.822670 -117.322072 341 5878ft 173kts
31-Dec-19 13:36 32.864683 -117.348113 318 7848ft 176kts
31-Dec-19 13:37 32.898931 -117.405552 311 7985ft 238kts
31-Dec-19 13:38 32.940696 -117.470272 311 7968ft 250kts
31-Dec-19 13:39 32.983419 -117.536548 311 7964ft 252kts
31-Dec-19 13:40 33.026419 -117.603370 311 7964ft 254kts
31-Dec-19 13:41 33.069656 -117.670674 310 7967ft 255kts
31-Dec-19 13:42 33.124768 -117.707550 357 7982ft 245kts
31-Dec-19 13:43 33.193127 -117.713343 357 7978ft 246kts
31-Dec-19 13:44 33.261669 -117.719007 357 7979ft 247kts
31-Dec-19 13:45 33.330134 -117.724665 357 7979ft 247kts
31-Dec-19 13:46 33.398713 -117.730340 357 7979ft 246kts
31-Dec-19 13:47 33.467265 -117.736020 357 7981ft 246kts
31-Dec-19 13:48 33.535671 -117.741696 357 7986ft 246kts
31-Dec-19 13:49 33.604405 -117.747397 356 7205ft 247kts
31-Dec-19 13:50 33.670552 -117.752916 356 5389ft 228kts
31-Dec-19 13:51 33.732010 -117.758041 355 3566ft 217kts
31-Dec-19 13:52 33.788483 -117.762769 355 3001ft 197kts
31-Dec-19 13:53 33.845395 -117.767525 355 3001ft 210kts
31-Dec-19 13:54 33.904531 -117.772477 355 2976ft 215kts
31-Dec-19 13:55 33.961433 -117.777240 355 2964ft 185kts
31-Dec-19 13:56 34.005747 -117.767768 12 2990ft 143kts
31-Dec-19 13:57 34.041995 -117.752610 18 2623ft 134kts
31-Dec-19 13:58 34.076346 -117.741679 359 2024ft 108kts
31-Dec-19 13:59 34.090560 -117.765507 273 1285ft 84kts
31-Dec-19 14:00 34.091487 -117.786153 274 1014ft 16kts
31-Dec-19 14:01 34.090968 -117.786815 177 1014ft 3kts
31-Dec-19 14:02 34.089521 -117.783452 148 1014ft 7kts
31-Dec-19 14:03 34.089401 -117.782894 87 1014ft 0kts
31-Dec-19 14:04 34.089401 -117.782894 87 1014ft 0kts

Navigation Log

Ident Type
Flight plan parsing failed, navigation log unavailable